Time;durP1;ratioP1;P1;durP2;ratioP2;P2;SDS_P1;SDS_P2;PMS_P1;PMS_P2;Temp;Humidity;BMP_temperature;BMP_pressure;BME280_temperature;BME280_humidity;BME280_pressure;Samples;Min_cycle;Max_cycle;Signal;HPM_P1;HPM_P2
2022/04/27 00:00:34;;;;;;;5.70;4.90;;;10.10;90.40;;;;;;5083796;28;20103;-70
2022/04/27 00:03:01;;;;;;;6.47;4.75;;;10.20;90.50;;;;;;5065333;28;20327;-72
2022/04/27 00:05:28;;;;;;;10.90;5.30;;;10.10;90.60;;;;;;5065608;28;20028;-71
2022/04/27 00:07:53;;;;;;;10.10;4.90;;;10.10;90.60;;;;;;5082637;28;20032;-72
2022/04/27 00:10:19;;;;;;;8.90;4.95;;;10.10;90.60;;;;;;5081951;28;20066;-70
2022/04/27 00:12:46;;;;;;;7.03;4.95;;;10.10;90.70;;;;;;5065932;28;20044;-71
2022/04/27 00:15:12;;;;;;;9.40;4.80;;;10.00;90.80;;;;;;5082499;28;20023;-70
2022/04/27 00:17:38;;;;;;;11.50;5.38;;;10.00;91.00;;;;;;5065149;28;20017;-70
2022/04/27 00:20:06;;;;;;;8.50;5.13;;;9.90;91.00;;;;;;5083638;28;20020;-70
2022/04/27 00:22:32;;;;;;;9.75;4.50;;;9.90;91.00;;;;;;5082210;28;20027;-71
2022/04/27 00:25:00;;;;;;;6.45;3.80;;;9.90;91.10;;;;;;5065517;28;20048;-70
2022/04/27 00:27:27;;;;;;;5.38;3.97;;;9.80;91.20;;;;;;5065988;28;20043;-71
2022/04/27 00:29:53;;;;;;;10.13;4.43;;;9.80;91.20;;;;;;5085817;28;20319;-73
2022/04/27 00:32:19;;;;;;;5.70;4.07;;;9.70;91.20;;;;;;5085934;28;20208;-70
2022/04/27 00:34:45;;;;;;;6.13;4.18;;;9.70;91.50;;;;;;5086271;28;20192;-70
2022/04/27 00:37:10;;;;;;;5.88;4.20;;;9.60;91.80;;;;;;5085792;28;20032;-71
2022/04/27 00:39:36;;;;;;;5.60;3.85;;;9.50;91.90;;;;;;5069086;28;20017;-70
2022/04/27 00:42:20;;;;;;;7.95;3.75;;;9.40;92.10;;;;;;5067231;28;20020;-71
2022/04/27 00:44:46;;;;;;;4.75;3.28;;;9.30;92.20;;;;;;5086134;28;20048;-72
2022/04/27 00:47:13;;;;;;;6.53;3.78;;;9.30;92.40;;;;;;5085000;28;20059;-71
2022/04/27 00:49:45;;;;;;;5.38;3.78;;;9.20;92.50;;;;;;5068911;28;20541;-71
2022/04/27 00:52:12;;;;;;;6.63;3.65;;;9.20;93.00;;;;;;5086392;28;20207;-71
2022/04/27 00:54:44;;;;;;;5.78;3.75;;;9.20;92.80;;;;;;5086685;28;20088;-70
2022/04/27 00:57:10;;;;;;;7.70;3.50;;;9.20;92.80;;;;;;5085737;28;20060;-70
2022/04/27 00:59:36;;;;;;;5.90;3.65;;;9.10;92.90;;;;;;5085130;28;20017;-72
2022/04/27 01:02:04;;;;;;;3.95;3.35;;;9.10;93.00;;;;;;5085528;28;20303;-72
2022/04/27 01:04:33;;;;;;;5.28;3.35;;;9.00;93.20;;;;;;5069212;28;20031;-72
2022/04/27 01:06:59;;;;;;;5.72;3.45;;;9.00;93.40;;;;;;5086356;28;20087;-72
2022/04/27 01:09:26;;;;;;;8.00;3.40;;;9.00;93.50;;;;;;5086711;28;20032;-72
2022/04/27 01:11:52;;;;;;;5.43;3.40;;;8.90;93.50;;;;;;5085617;28;20024;-72
2022/04/27 01:14:18;;;;;;;10.88;3.47;;;8.90;93.60;;;;;;5086346;28;20295;-72
2022/04/27 01:16:51;;;;;;;6.47;3.28;;;8.90;93.70;;;;;;5068440;28;20066;-71
2022/04/27 01:19:17;;;;;;;6.00;3.60;;;8.80;93.80;;;;;;5068640;28;20020;-71
2022/04/27 01:21:43;;;;;;;5.38;3.20;;;8.80;93.90;;;;;;5085092;28;20024;-72
2022/04/27 01:24:10;;;;;;;4.78;3.10;;;8.80;94.00;;;;;;5068230;28;20355;-71
2022/04/27 01:26:37;;;;;;;5.35;3.17;;;8.80;94.00;;;;;;5085295;28;20028;-69
2022/04/27 01:29:04;;;;;;;8.13;3.10;;;8.70;94.10;;;;;;5068697;28;20087;-70
2022/04/27 01:31:30;;;;;;;4.90;3.10;;;8.70;94.10;;;;;;5084791;28;20017;-70
2022/04/27 01:33:55;;;;;;;5.85;3.63;;;8.70;94.20;;;;;;5084581;28;20291;-71
2022/04/27 01:36:21;;;;;;;5.78;3.20;;;8.60;94.30;;;;;;5086489;28;20035;-71
2022/04/27 01:38:47;;;;;;;6.78;3.38;;;8.60;94.40;;;;;;5067471;28;20036;-71
2022/04/27 01:41:13;;;;;;;5.72;3.35;;;8.60;94.50;;;;;;5085971;28;20306;-71
2022/04/27 01:43:38;;;;;;;6.97;3.08;;;8.60;94.50;;;;;;5084329;28;20031;-71
2022/04/27 01:46:05;;;;;;;6.03;3.40;;;8.50;94.80;;;;;;5084278;28;20283;-71
2022/04/27 01:48:31;;;;;;;6.32;3.33;;;8.50;94.70;;;;;;5085884;28;20058;-71
2022/04/27 01:50:57;;;;;;;9.65;3.20;;;8.50;94.80;;;;;;5068191;28;20059;-71
2022/04/27 01:56:08;;;;;;;4.93;3.10;;;8.40;94.90;;;;;;5084856;28;20199;-71
2022/04/27 01:58:34;;;;;;;6.15;4.55;;;8.40;95.00;;;;;;5084534;28;20079;-71
2022/04/27 02:01:00;;;;;;;5.57;3.53;;;8.30;95.10;;;;;;5084322;28;20020;-72
2022/04/27 02:03:26;;;;;;;5.50;3.65;;;8.30;95.20;;;;;;5084406;28;20062;-71
2022/04/27 02:05:52;;;;;;;6.07;3.55;;;8.30;95.20;;;;;;5084408;28;20099;-71
2022/04/27 02:08:18;;;;;;;5.03;3.45;;;8.30;95.30;;;;;;5084000;28;20089;-71
2022/04/27 02:10:45;;;;;;;3.97;3.58;;;8.30;95.20;;;;;;5084083;28;20307;-71
2022/04/27 02:13:11;;;;;;;7.93;3.53;;;8.30;95.30;;;;;;5067767;28;20044;-72
2022/04/27 02:15:38;;;;;;;4.57;3.30;;;8.30;95.30;;;;;;5067674;28;20016;-72
2022/04/27 02:18:04;;;;;;;8.20;3.72;;;8.30;95.30;;;;;;5067330;28;20021;-71
2022/04/27 02:20:30;;;;;;;7.30;3.97;;;8.20;95.50;;;;;;5067329;28;20024;-71
2022/04/27 02:22:55;;;;;;;5.65;3.60;;;8.20;95.80;;;;;;5083938;28;20021;-71
2022/04/27 02:25:22;;;;;;;8.13;3.55;;;8.10;95.90;;;;;;5067147;28;20031;-71
2022/04/27 02:27:49;;;;;;;5.78;4.20;;;8.10;96.10;;;;;;5084073;28;20307;-71
2022/04/27 02:30:16;;;;;;;5.05;3.95;;;8.00;96.20;;;;;;5067600;28;20295;-71
2022/04/27 02:32:41;;;;;;;7.43;3.90;;;8.00;96.40;;;;;;5083727;28;20016;-71
2022/04/27 02:35:08;;;;;;;6.82;3.83;;;8.00;96.40;;;;;;5083787;28;20028;-71
2022/04/27 02:37:36;;;;;;;4.07;3.67;;;7.90;96.50;;;;;;5084248;28;20028;-71
2022/04/27 02:40:03;;;;;;;6.40;3.70;;;8.00;96.40;;;;;;5084442;28;20028;-72
2022/04/27 02:42:29;;;;;;;9.20;3.97;;;8.00;96.40;;;;;;5067335;28;20107;-72
2022/04/27 02:44:56;;;;;;;7.35;3.72;;;8.00;96.40;;;;;;5065274;28;20046;-71
2022/04/27 02:47:22;;;;;;;5.03;3.45;;;8.10;96.30;;;;;;5083259;28;20062;-72
2022/04/27 02:52:33;;;;;;;4.32;3.33;;;8.10;96.30;;;;;;5083193;28;20084;-71
2022/04/27 02:54:59;;;;;;;4.93;3.42;;;8.10;96.40;;;;;;5083475;28;20184;-71
2022/04/27 02:57:24;;;;;;;8.00;3.75;;;8.10;96.40;;;;;;5083261;28;20180;-72
2022/04/27 02:59:50;;;;;;;4.10;3.67;;;8.20;96.40;;;;;;5083302;28;20020;-71
2022/04/27 03:02:16;;;;;;;5.40;3.42;;;8.20;96.30;;;;;;5083213;28;20021;-71
2022/04/27 03:04:42;;;;;;;5.72;3.80;;;8.20;96.30;;;;;;5066546;28;20363;-71
2022/04/27 03:07:08;;;;;;;4.80;3.65;;;8.20;96.30;;;;;;5066659;28;20039;-71
2022/04/27 03:09:34;;;;;;;6.45;3.95;;;8.10;96.40;;;;;;5082989;28;20035;-70
2022/04/27 03:12:00;;;;;;;6.05;3.58;;;8.10;96.50;;;;;;5083131;28;20021;-71
2022/04/27 03:14:26;;;;;;;4.00;3.25;;;8.10;96.70;;;;;;5066034;28;20020;-71
2022/04/27 03:16:52;;;;;;;4.65;3.22;;;8.00;96.70;;;;;;5084278;28;20063;-71
2022/04/27 03:19:19;;;;;;;8.27;4.18;;;8.00;97.00;;;;;;5083016;28;20027;-72
2022/04/27 03:21:45;;;;;;;5.22;3.88;;;8.00;97.00;;;;;;5082354;28;20327;-71
2022/04/27 03:24:10;;;;;;;9.35;3.88;;;8.00;97.00;;;;;;5082433;28;20051;-71
2022/04/27 03:26:36;;;;;;;4.55;3.38;;;8.00;97.00;;;;;;5082774;28;20024;-70
2022/04/27 03:29:03;;;;;;;6.10;3.35;;;8.00;97.10;;;;;;5082904;28;20278;-71
2022/04/27 03:31:29;;;;;;;7.05;3.75;;;8.10;97.10;;;;;;5082620;28;20020;-71
2022/04/27 03:33:55;;;;;;;5.55;3.72;;;8.10;97.10;;;;;;5065723;28;20040;-72
2022/04/27 03:36:20;;;;;;;7.57;4.22;;;8.10;97.10;;;;;;5082780;28;20035;-72
2022/04/27 03:38:48;;;;;;;6.10;3.53;;;8.00;97.20;;;;;;5081637;28;20041;-71
2022/04/27 03:41:17;;;;;;;4.82;4.13;;;7.90;97.40;;;;;;5081359;28;20320;-71
2022/04/27 03:43:44;;;;;;;5.32;3.83;;;7.90;97.40;;;;;;5066616;28;20016;-71
2022/04/27 03:46:09;;;;;;;7.57;3.83;;;7.80;97.50;;;;;;5080571;28;20052;-71
2022/04/27 03:48:35;;;;;;;5.78;4.10;;;7.80;97.60;;;;;;5083776;28;20246;-71
2022/04/27 03:51:01;;;;;;;5.57;3.95;;;7.80;97.80;;;;;;5082593;28;20021;-71
2022/04/27 03:53:26;;;;;;;5.88;3.78;;;7.70;97.90;;;;;;5065380;28;20032;-71
2022/04/27 03:55:52;;;;;;;5.75;3.85;;;7.70;98.00;;;;;;5082843;28;20016;-70
2022/04/27 03:58:19;;;;;;;6.13;4.07;;;7.70;98.10;;;;;;5082870;28;20087;-71
2022/04/27 04:00:45;;;;;;;11.70;4.05;;;7.70;98.10;;;;;;5082611;28;20020;-71
2022/04/27 04:03:11;;;;;;;5.40;4.10;;;7.70;98.10;;;;;;5068809;28;20027;-72
2022/04/27 04:05:37;;;;;;;9.70;3.85;;;7.80;98.10;;;;;;5087899;28;20070;-71
2022/04/27 04:08:03;;;;;;;11.27;4.47;;;7.80;98.00;;;;;;5087668;28;20319;-71
2022/04/27 04:10:29;;;;;;;6.82;3.90;;;7.90;97.90;;;;;;5087982;28;20024;-70
2022/04/27 04:12:55;;;;;;;11.60;3.83;;;7.90;97.90;;;;;;5087290;28;20019;-71
2022/04/27 04:15:21;;;;;;;6.40;4.20;;;8.00;97.70;;;;;;5087019;28;20267;-71
2022/04/27 04:17:46;;;;;;;5.40;3.83;;;8.00;97.60;;;;;;5087703;28;20028;-71
2022/04/27 04:20:14;;;;;;;5.95;3.80;;;7.90;97.70;;;;;;5069430;28;20028;-71
2022/04/27 04:22:41;;;;;;;8.00;4.05;;;7.90;97.80;;;;;;5086225;28;20009;-71
2022/04/27 04:30:39;;;;;;;4.78;3.72;;;7.90;97.80;;;;;;5085806;28;20025;-71
2022/04/27 04:33:05;;;;;;;7.10;4.00;;;7.90;97.90;;;;;;5086376;28;20028;-72
2022/04/27 04:35:30;;;;;;;7.82;4.00;;;7.90;97.90;;;;;;5085950;28;20020;-72
2022/04/27 04:37:56;;;;;;;6.93;4.13;;;7.90;97.90;;;;;;5085654;28;20103;-71
2022/04/27 04:40:22;;;;;;;7.85;3.90;;;7.90;97.70;;;;;;5085527;28;20024;-71
2022/04/27 04:42:48;;;;;;;5.85;3.55;;;7.90;97.70;;;;;;5069559;28;20028;-71
2022/04/27 04:45:14;;;;;;;6.45;3.63;;;7.80;97.70;;;;;;5067023;28;20024;-71
2022/04/27 04:47:42;;;;;;;7.32;4.30;;;7.80;97.80;;;;;;5085649;28;20037;-71
2022/04/27 04:50:08;;;;;;;7.10;3.97;;;7.70;97.90;;;;;;5087127;28;20033;-70
2022/04/27 04:52:34;;;;;;;5.93;3.92;;;7.70;98.00;;;;;;5085508;28;20028;-72
2022/04/27 04:54:59;;;;;;;5.65;3.90;;;7.70;98.00;;;;;;5086117;28;20024;-71
2022/04/27 04:57:25;;;;;;;5.75;3.53;;;7.70;98.00;;;;;;5085941;28;20025;-72
2022/04/27 04:59:51;;;;;;;6.90;4.20;;;7.70;98.00;;;;;;5086439;28;20032;-71
2022/04/27 05:02:17;;;;;;;6.25;3.65;;;7.70;98.00;;;;;;5068973;28;20071;-71
2022/04/27 05:04:42;;;;;;;6.05;3.95;;;7.90;98.00;;;;;;5085874;28;20123;-71
2022/04/27 05:07:08;;;;;;;7.07;3.47;;;7.90;97.90;;;;;;5086445;28;20314;-71
2022/04/27 05:09:34;;;;;;;6.75;3.95;;;7.90;97.70;;;;;;5085624;28;20075;-70
2022/04/27 05:12:00;;;;;;;5.78;4.10;;;7.90;97.80;;;;;;5068426;28;20040;-71
2022/04/27 05:14:25;;;;;;;6.90;3.97;;;7.80;97.90;;;;;;5084621;28;20017;-71
2022/04/27 05:16:51;;;;;;;6.18;4.30;;;7.80;97.90;;;;;;5085526;28;20107;-72
2022/04/27 05:19:16;;;;;;;7.95;4.13;;;7.70;98.20;;;;;;5085469;28;20322;-71
2022/04/27 05:21:42;;;;;;;7.45;4.60;;;7.80;98.20;;;;;;5068029;28;20042;-71
2022/04/27 05:24:08;;;;;;;11.15;4.15;;;7.80;98.10;;;;;;5086066;28;20020;-71
2022/04/27 05:26:34;;;;;;;12.65;4.70;;;7.80;98.10;;;;;;5068711;28;20032;-71
2022/04/27 05:32:03;;;;;;;10.25;4.38;;;7.80;98.20;;;;;;5085561;28;20304;-71
2022/04/27 05:34:30;;;;;;;10.25;5.00;;;7.80;98.60;;;;;;5085000;28;20062;-71
2022/04/27 05:36:56;;;;;;;6.43;4.57;;;7.80;98.60;;;;;;5085257;28;20031;-71
2022/04/27 05:39:23;;;;;;;6.28;4.82;;;7.80;98.50;;;;;;5084753;28;20021;-71
2022/04/27 05:41:50;;;;;;;6.93;4.57;;;7.80;98.50;;;;;;5085008;28;20020;-72
2022/04/27 05:44:22;;;;;;;7.47;4.50;;;7.90;98.80;;;;;;5068365;28;20082;-71
2022/04/27 05:46:49;;;;;;;7.70;4.43;;;8.00;98.80;;;;;;5082361;28;20059;-70
2022/04/27 05:49:14;;;;;;;7.90;4.80;;;8.00;98.60;;;;;;5084828;28;20100;-71
2022/04/27 05:51:40;;;;;;;8.15;4.47;;;8.10;98.40;;;;;;5085785;28;20024;-72
2022/04/27 05:54:06;;;;;;;7.93;4.68;;;8.20;98.30;;;;;;5084178;28;20020;-71
2022/04/27 05:56:33;;;;;;;10.48;4.65;;;8.30;97.80;;;;;;5068218;28;20020;-71
2022/04/27 05:58:59;;;;;;;7.15;4.63;;;8.40;98.00;;;;;;5067677;28;20213;-71
2022/04/27 06:01:25;;;;;;;10.80;5.30;;;8.40;97.50;;;;;;5084153;28;20020;-71
2022/04/27 06:03:50;;;;;;;11.50;5.18;;;8.30;97.80;;;;;;5068013;28;20219;-70
2022/04/27 06:06:16;;;;;;;8.35;5.10;;;8.20;98.00;;;;;;5084381;28;20083;-72
2022/04/27 06:08:42;;;;;;;13.43;5.43;;;8.30;98.10;;;;;;5067581;28;20078;-71
2022/04/27 06:11:08;;;;;;;10.93;5.05;;;8.40;97.80;;;;;;5067811;28;20029;-72
2022/04/27 06:13:33;;;;;;;7.82;5.15;;;8.50;97.70;;;;;;5085690;28;20023;-71
2022/04/27 06:15:59;;;;;;;8.88;5.40;;;8.40;97.60;;;;;;5067486;28;20025;-71
2022/04/27 06:18:25;;;;;;;18.67;5.70;;;8.50;97.70;;;;;;5084473;28;20020;-71
2022/04/27 06:20:52;;;;;;;9.02;5.15;;;8.50;97.50;;;;;;5084329;28;20295;-71
2022/04/27 06:23:18;;;;;;;11.77;5.55;;;8.40;97.80;;;;;;5084894;28;20307;-71
2022/04/27 06:25:47;;;;;;;12.23;4.68;;;8.30;97.90;;;;;;5084408;28;20023;-72
2022/04/27 06:28:13;;;;;;;23.25;5.47;;;8.40;98.00;;;;;;5085690;28;20040;-72
2022/04/27 06:30:39;;;;;;;14.55;5.20;;;8.40;98.00;;;;;;5084026;28;20024;-71
2022/04/27 06:33:05;;;;;;;9.95;5.75;;;8.50;98.00;;;;;;5067139;28;20021;-70
2022/04/27 06:35:31;;;;;;;7.95;4.32;;;8.50;97.80;;;;;;5083923;28;20028;-70
2022/04/27 06:37:57;;;;;;;12.20;4.30;;;8.50;97.70;;;;;;5066952;28;20017;-71
2022/04/27 06:40:24;;;;;;;13.07;4.20;;;8.60;97.60;;;;;;5083600;28;20366;-72
2022/04/27 06:42:51;;;;;;;6.70;4.20;;;8.70;97.40;;;;;;5084579;28;20027;-71
2022/04/27 06:45:17;;;;;;;7.38;3.97;;;8.80;96.90;;;;;;5083658;28;20028;-72
2022/04/27 06:47:43;;;;;;;7.72;4.07;;;8.90;96.80;;;;;;5082803;28;20099;-71
2022/04/27 06:50:12;;;;;;;12.07;4.55;;;9.00;96.70;;;;;;5083729;28;20024;-71
2022/04/27 06:52:41;;;;;;;10.77;3.85;;;9.00;96.60;;;;;;5082990;28;20032;-74
2022/04/27 06:55:08;;;;;;;12.63;3.78;;;9.00;96.30;;;;;;5066785;28;20025;-72
2022/04/27 06:57:34;;;;;;;8.45;3.75;;;9.10;96.20;;;;;;5066957;28;20024;-74
2022/04/27 06:59:59;;;;;;;10.60;3.40;;;9.10;96.50;;;;;;5083429;28;20038;-73
2022/04/27 07:02:25;;;;;;;7.43;3.28;;;9.20;96.30;;;;;;5066285;28;20024;-74
2022/04/27 07:04:55;;;;;;;9.05;2.97;;;9.30;95.70;;;;;;5083437;28;20028;-73
2022/04/27 07:07:21;;;;;;;7.10;3.05;;;9.40;95.70;;;;;;5083331;28;20028;-75
2022/04/27 07:09:48;;;;;;;7.22;2.90;;;9.50;95.90;;;;;;5075761;28;20024;-74
2022/04/27 07:12:13;;;;;;;8.43;2.72;;;9.60;95.20;;;;;;5076279;28;20065;-73
2022/04/27 07:14:39;;;;;;;6.55;2.83;;;9.60;95.10;;;;;;5082453;28;20051;-74
2022/04/27 07:17:05;;;;;;;4.05;2.63;;;9.70;94.90;;;;;;5062229;28;20028;-73
2022/04/27 07:19:31;;;;;;;7.28;2.90;;;9.80;94.70;;;;;;5062661;28;20300;-75
2022/04/27 07:21:57;;;;;;;8.80;2.50;;;9.80;94.40;;;;;;5061566;28;20021;-75
2022/04/27 07:24:24;;;;;;;4.63;2.30;;;9.80;94.10;;;;;;5077200;28;20012;-73
2022/04/27 07:26:49;;;;;;;8.15;2.67;;;9.90;94.20;;;;;;5080473;28;20307;-73
2022/04/27 07:29:15;;;;;;;8.18;2.30;;;10.00;94.30;;;;;;5054203;28;20021;-72
2022/04/27 07:31:41;;;;;;;8.95;2.33;;;10.10;93.80;;;;;;5069412;28;20288;-72
2022/04/27 07:34:06;;;;;;;8.68;2.22;;;10.10;93.50;;;;;;5050401;28;20049;-72
2022/04/27 07:36:32;;;;;;;6.00;2.42;;;10.10;93.30;;;;;;5068148;28;20012;-71
2022/04/27 07:38:58;;;;;;;7.10;1.90;;;10.20;93.50;;;;;;5062729;28;20095;-74
2022/04/27 07:41:23;;;;;;;5.28;1.58;;;10.20;93.20;;;;;;5073770;28;20186;-73
2022/04/27 07:43:49;;;;;;;4.25;1.73;;;10.20;93.20;;;;;;5062228;28;20031;-73
2022/04/27 07:46:15;;;;;;;9.52;1.90;;;10.30;93.00;;;;;;5078202;28;20040;-70
2022/04/27 07:48:41;;;;;;;10.18;2.10;;;10.30;93.10;;;;;;5042290;28;20107;-73
2022/04/27 07:51:07;;;;;;;4.57;1.52;;;10.40;92.80;;;;;;5078207;28;20025;-74
2022/04/27 07:53:33;;;;;;;6.00;1.95;;;10.30;92.60;;;;;;5081523;28;20358;-74
2022/04/27 07:55:59;;;;;;;5.30;1.58;;;10.30;92.50;;;;;;5081373;28;20024;-75
2022/04/27 07:58:24;;;;;;;7.30;1.88;;;10.40;92.30;;;;;;5099794;28;20061;-76
2022/04/27 08:00:50;;;;;;;9.55;1.60;;;10.50;92.40;;;;;;5051976;28;20046;-73
2022/04/27 08:03:16;;;;;;;5.45;1.48;;;10.60;92.20;;;;;;5080259;28;20016;-74
2022/04/27 08:05:42;;;;;;;9.02;1.45;;;10.70;91.80;;;;;;5080509;28;20028;-71
2022/04/27 08:08:09;;;;;;;9.02;1.65;;;10.80;91.80;;;;;;5062680;28;20192;-77
2022/04/27 08:10:35;;;;;;;4.25;1.40;;;11.00;91.80;;;;;;5045445;28;20224;-70
2022/04/27 08:13:00;;;;;;;7.70;1.40;;;11.10;90.90;;;;;;5081610;28;20029;-71
2022/04/27 08:15:26;;;;;;;13.23;1.83;;;11.20;90.70;;;;;;5071486;28;20527;-73
2022/04/27 08:17:55;;;;;;;3.50;1.20;;;11.30;90.90;;;;;;5079977;28;20023;-70
2022/04/27 08:23:11;;;;;;;7.20;1.23;;;11.40;88.50;;;;;;5047666;28;20371;-72
2022/04/27 08:25:37;;;;;;;9.07;1.40;;;11.50;88.20;;;;;;5061738;28;20037;-72
2022/04/27 08:28:06;;;;;;;8.70;1.77;;;11.60;88.10;;;;;;5081416;28;20035;-70
2022/04/27 08:30:37;;;;;;;3.40;1.20;;;11.50;87.40;;;;;;5081898;28;20046;-71
2022/04/27 08:33:04;;;;;;;6.75;1.70;;;11.50;86.60;;;;;;5081329;28;20024;-70
2022/04/27 08:35:31;;;;;;;5.68;1.33;;;11.40;86.20;;;;;;5081472;28;20210;-72
2022/04/27 08:37:58;;;;;;;6.20;1.30;;;11.50;86.40;;;;;;5081049;28;20180;-71
2022/04/27 08:40:24;;;;;;;4.50;1.20;;;11.60;85.00;;;;;;5044465;28;20251;-72
2022/04/27 08:42:52;;;;;;;17.77;1.33;;;11.60;83.80;;;;;;5044760;28;20353;-72
2022/04/27 08:45:18;;;;;;;6.60;1.30;;;11.50;83.80;;;;;;5029149;28;20052;-69
2022/04/27 08:47:46;;;;;;;4.25;1.00;;;11.60;83.90;;;;;;5079393;28;20055;-72
2022/04/27 08:50:13;;;;;;;8.75;1.45;;;11.70;83.20;;;;;;5065664;28;20028;-70
2022/04/27 08:52:41;;;;;;;4.95;0.93;;;11.70;82.10;;;;;;5086106;28;20028;-71
2022/04/27 08:55:07;;;;;;;7.90;1.50;;;11.80;82.00;;;;;;5068061;28;20032;-72
2022/04/27 08:57:35;;;;;;;3.88;1.10;;;11.80;82.60;;;;;;5068755;28;20017;-72
2022/04/27 09:00:04;;;;;;;5.32;1.30;;;11.70;82.80;;;;;;5068292;28;20021;-70
2022/04/27 09:02:33;;;;;;;3.55;1.00;;;11.80;82.60;;;;;;5085162;28;20020;-73
2022/04/27 09:05:19;;;;;;;3.35;1.10;;;11.80;82.80;;;;;;5064760;28;20048;-73
2022/04/27 09:07:50;;;;;;;4.57;1.15;;;11.70;82.50;;;;;;5064616;28;20028;-69
2022/04/27 09:10:17;;;;;;;4.68;1.15;;;11.70;83.30;;;;;;5067459;28;20032;-71
2022/04/27 09:12:49;;;;;;;2.35;1.05;;;11.50;83.50;;;;;;5067723;28;20066;-71
2022/04/27 09:15:18;;;;;;;1.77;1.10;;;11.50;81.40;;;;;;5084579;28;20331;-72
2022/04/27 09:23:41;;;;;;;9.75;1.20;;;11.20;79.70;;;;;;5083974;28;20091;-70
2022/04/27 09:26:19;;;;;;;5.78;1.05;;;11.10;80.00;;;;;;5082754;28;20074;-71
2022/04/27 09:28:48;;;;;;;1.80;0.80;;;11.10;79.80;;;;;;5083926;28;20034;-70
2022/04/27 09:31:35;;;;;;;1.67;0.85;;;11.10;79.70;;;;;;5067634;28;20052;-68
2022/04/27 09:34:27;;;;;;;2.10;0.80;;;11.00;79.30;;;;;;5068649;28;20031;-69
2022/04/27 09:37:25;;;;;;;4.75;0.80;;;11.20;77.10;;;;;;5070713;28;20020;-69
2022/04/27 09:40:07;;;;;;;7.35;1.00;;;11.40;76.80;;;;;;5055272;28;20013;-71
2022/04/27 09:42:36;;;;;;;1.00;0.80;;;11.60;75.60;;;;;;5067312;28;20059;-71
2022/04/27 09:45:23;;;;;;;2.92;0.60;;;11.60;75.60;;;;;;5067183;28;20024;-72
2022/04/27 09:47:57;;;;;;;2.05;0.80;;;11.60;74.80;;;;;;5063931;28;20053;-72
2022/04/27 09:50:23;;;;;;;2.47;0.88;;;11.50;75.10;;;;;;5086952;28;20027;-70
2022/04/27 09:52:49;;;;;;;3.35;0.50;;;11.50;74.80;;;;;;5090723;28;20032;-68
2022/04/27 09:55:15;;;;;;;8.48;1.00;;;11.60;74.60;;;;;;5083563;28;20365;-72
2022/04/27 09:57:42;;;;;;;2.80;0.80;;;11.80;75.00;;;;;;5083484;28;20052;-72
2022/04/27 10:00:09;;;;;;;6.85;1.52;;;12.00;74.60;;;;;;5066723;28;20016;-68
2022/04/27 10:02:37;;;;;;;1.23;0.80;;;12.20;74.20;;;;;;5083351;28;20033;-67
2022/04/27 10:05:04;;;;;;;1.27;0.82;;;11.90;74.60;;;;;;5064942;28;20020;-70
2022/04/27 10:07:32;;;;;;;2.13;0.77;;;11.90;75.40;;;;;;5078389;28;20334;-71
2022/04/27 10:09:59;;;;;;;2.45;1.00;;;11.80;75.60;;;;;;5084560;28;20177;-72
2022/04/27 10:12:24;;;;;;;3.85;1.00;;;11.90;75.70;;;;;;5066476;28;20227;-72
2022/04/27 10:14:50;;;;;;;3.35;0.93;;;11.90;75.70;;;;;;5083704;28;20016;-70
2022/04/27 10:17:16;;;;;;;3.65;0.82;;;11.80;75.40;;;;;;5083145;28;20334;-73
2022/04/27 10:19:47;;;;;;;4.57;0.80;;;11.70;76.30;;;;;;5084171;28;20017;-71
2022/04/27 10:22:26;;;;;;;3.42;0.93;;;11.80;76.30;;;;;;5065718;28;20027;-71
2022/04/27 10:24:53;;;;;;;2.90;1.10;;;11.70;76.00;;;;;;5048719;28;20373;-71
2022/04/27 10:27:22;;;;;;;6.78;1.17;;;11.70;75.80;;;;;;5079609;28;20088;-71
2022/04/27 10:29:51;;;;;;;2.00;0.80;;;11.70;76.40;;;;;;5066426;28;20052;-73
2022/04/27 10:32:40;;;;;;;3.92;0.82;;;11.80;76.70;;;;;;5066095;28;20093;-70
2022/04/27 10:35:18;;;;;;;6.75;1.60;;;11.70;77.00;;;;;;5081916;28;20048;-69
2022/04/27 10:37:51;;;;;;;7.32;1.25;;;11.80;77.10;;;;;;5083358;28;20230;-70
2022/04/27 10:40:41;;;;;;;5.60;0.98;;;11.90;76.00;;;;;;5081779;28;20031;-69
2022/04/27 10:43:27;;;;;;;5.05;0.85;;;12.00;74.90;;;;;;5069507;28;20038;-70
2022/04/27 10:45:53;;;;;;;16.63;1.73;;;12.00;74.50;;;;;;5066813;28;20113;-73
2022/04/27 10:48:48;;;;;;;5.03;0.90;;;12.00;74.80;;;;;;5063491;28;20024;-71
2022/04/27 10:51:13;;;;;;;7.65;1.20;;;11.90;75.40;;;;;;5065212;28;20361;-71
2022/04/27 10:53:40;;;;;;;5.28;0.85;;;11.90;75.70;;;;;;5091718;28;20052;-70
2022/04/27 10:56:23;;;;;;;12.45;1.35;;;11.90;75.40;;;;;;5065420;28;20025;-70
2022/04/27 10:58:48;;;;;;;3.95;0.88;;;11.90;75.60;;;;;;5081441;28;20048;-73
2022/04/27 11:01:18;;;;;;;2.60;1.08;;;11.90;76.60;;;;;;5065279;28;20188;-74
2022/04/27 11:03:45;;;;;;;3.40;1.00;;;12.00;75.80;;;;;;5082838;28;20024;-70
2022/04/27 11:06:13;;;;;;;2.78;1.13;;;12.10;75.30;;;;;;5081737;28;20082;-70
2022/04/27 11:09:18;;;;;;;5.72;1.20;;;12.20;75.00;;;;;;5044961;28;20377;-70
2022/04/27 11:11:59;;;;;;;3.88;1.30;;;12.30;75.60;;;;;;5059074;28;20024;-72
2022/04/27 11:14:34;;;;;;;5.28;1.02;;;12.50;74.60;;;;;;5063400;28;20086;-75
2022/04/27 11:17:00;;;;;;;7.60;1.23;;;12.40;74.20;;;;;;5079786;28;20363;-75
2022/04/27 11:19:35;;;;;;;5.47;0.88;;;12.20;75.20;;;;;;5081569;28;20039;-74
2022/04/27 11:22:16;;;;;;;6.18;1.10;;;12.30;75.30;;;;;;5063620;28;20031;-71
2022/04/27 11:24:46;;;;;;;4.20;1.20;;;12.40;74.10;;;;;;5081125;28;20024;-74
2022/04/27 11:27:12;;;;;;;4.32;1.20;;;12.50;73.50;;;;;;5081697;28;20087;-76
2022/04/27 11:29:39;;;;;;;4.40;1.30;;;12.50;73.30;;;;;;5065565;28;20028;-74
2022/04/27 11:32:07;;;;;;;3.85;1.38;;;12.50;74.80;;;;;;5063870;28;20104;-76
2022/04/27 11:34:33;;;;;;;4.05;1.25;;;12.50;73.60;;;;;;5052092;28;20056;-73
2022/04/27 11:37:13;;;;;;;3.63;1.30;;;12.60;74.40;;;;;;5055492;28;20063;-74
2022/04/27 11:39:39;;;;;;;2.97;1.10;;;12.50;74.20;;;;;;5065644;28;20268;-71
2022/04/27 11:42:04;;;;;;;3.85;1.10;;;12.50;74.80;;;;;;5061262;28;20039;-73
2022/04/27 11:44:31;;;;;;;7.88;1.52;;;12.50;75.10;;;;;;5061905;28;20025;-73
2022/04/27 11:46:57;;;;;;;6.40;1.42;;;12.50;74.90;;;;;;5090116;28;20123;-74
2022/04/27 11:49:24;;;;;;;4.53;1.52;;;12.30;75.70;;;;;;5097001;28;20035;-75
2022/04/27 11:51:50;;;;;;;35.55;4.20;;;12.20;76.40;;;;;;5071323;28;20327;-73
2022/04/27 11:54:28;;;;;;;8.98;1.55;;;12.20;75.80;;;;;;5061334;28;20031;-74
2022/04/27 11:56:56;;;;;;;4.78;1.63;;;12.40;75.80;;;;;;5082606;28;20028;-74
2022/04/27 11:59:22;;;;;;;6.75;2.03;;;12.40;76.20;;;;;;5080815;28;20021;-74
2022/04/27 12:01:52;;;;;;;6.40;1.85;;;12.40;76.00;;;;;;5082199;28;20032;-73
2022/04/27 12:04:19;;;;;;;4.07;1.33;;;12.40;75.60;;;;;;5080852;28;20016;-74
2022/04/27 12:06:45;;;;;;;6.00;1.70;;;12.30;75.20;;;;;;5081700;28;20032;-71
2022/04/27 12:09:18;;;;;;;6.10;1.52;;;12.30;76.20;;;;;;5081276;28;20043;-74
2022/04/27 12:11:45;;;;;;;7.80;1.48;;;12.40;76.10;;;;;;5048004;28;20100;-76
2022/04/27 12:14:12;;;;;;;10.65;1.27;;;12.30;75.60;;;;;;5078386;28;20021;-73
2022/04/27 12:16:42;;;;;;;4.88;1.27;;;12.20;76.20;;;;;;5082589;28;20028;-73
2022/04/27 12:19:08;;;;;;;6.10;1.30;;;12.20;76.60;;;;;;5064413;28;20075;-71
2022/04/27 12:21:34;;;;;;;5.25;1.60;;;12.40;75.90;;;;;;5080846;28;20020;-75
2022/04/27 12:24:14;;;;;;;5.55;1.67;;;12.40;76.20;;;;;;5049417;28;20017;-71
2022/04/27 12:26:40;;;;;;;6.57;1.48;;;12.30;76.50;;;;;;5085120;28;20024;-72
2022/04/27 12:29:07;;;;;;;7.38;1.73;;;12.50;77.20;;;;;;5068658;28;20035;-76
2022/04/27 12:31:34;;;;;;;6.43;1.90;;;12.80;76.40;;;;;;5085062;28;20024;-73
2022/04/27 12:34:03;;;;;;;4.22;1.80;;;12.90;75.90;;;;;;5068114;28;20046;-76
2022/04/27 12:39:20;;;;;;;6.75;1.80;;;12.60;76.70;;;;;;5084399;28;20055;-73
2022/04/27 12:41:48;;;;;;;4.60;1.95;;;12.60;76.30;;;;;;5084470;28;20024;-71
2022/04/27 12:44:18;;;;;;;6.10;1.63;;;12.70;76.50;;;;;;5068542;28;20062;-74
2022/04/27 12:47:07;;;;;;;7.03;2.08;;;12.90;76.30;;;;;;5084210;28;20032;-73
2022/04/27 12:49:37;;;;;;;6.45;2.00;;;12.90;76.70;;;;;;5070839;28;20226;-74
2022/04/27 12:52:21;;;;;;;8.80;2.60;;;12.90;75.90;;;;;;5065802;28;20044;-76
2022/04/27 12:54:49;;;;;;;9.05;2.15;;;12.80;76.20;;;;;;5085266;28;20020;-73
2022/04/27 12:57:15;;;;;;;6.22;2.03;;;12.70;76.90;;;;;;5085577;28;20031;-74
2022/04/27 12:59:57;;;;;;;4.95;1.90;;;12.70;77.90;;;;;;5085538;28;20024;-76
2022/04/27 13:02:24;;;;;;;8.13;1.95;;;12.70;77.10;;;;;;5067556;28;20020;-73
2022/04/27 13:04:51;;;;;;;4.55;2.22;;;12.70;77.20;;;;;;5067794;28;20181;-71
2022/04/27 13:07:18;;;;;;;9.48;2.33;;;12.70;77.30;;;;;;5068501;28;20319;-72
2022/04/27 13:12:31;;;;;;;6.45;2.08;;;12.60;77.60;;;;;;5084633;28;20195;-72
2022/04/27 13:14:57;;;;;;;5.35;2.28;;;12.70;77.60;;;;;;5068253;28;20304;-75
2022/04/27 13:17:23;;;;;;;6.18;1.75;;;12.80;76.90;;;;;;5084862;28;20016;-75
2022/04/27 13:19:49;;;;;;;5.55;1.83;;;12.90;76.80;;;;;;5067774;28;20054;-73
2022/04/27 13:22:14;;;;;;;7.25;2.33;;;12.90;76.10;;;;;;5067192;28;20024;-72